To NAV CANADA Home Page Login to a new session Search on AWWS site Feedback and Comments Disclaimer Vers la page française équivalente Tips FAQ What's new on the site To the Forecasts and Observations / NOTAM section To "File a Flight Plan" website Publications and other links Update of the User's profile FIC Telephone Numbers My Weather Data Folder Route Weather Data Regional Weather Data Local Weather Data To the Forecasts and Observations / NOTAM section
Request Generated 04/25/2014 at 06:41:01 UTC . Weather information available at that time is displayed.

METAR/TAF

TRENTON/ON    

METAR CYTR 250600Z 05004KT 15SM BKN120 02/M02 A3002 RMK AC6 SLP168=
METAR CYTR 250500Z 04004KT 15SM FEW120 02/M01 A3003 RMK AC1 SLP172=
METAR CYTR 250400Z 04003KT 15SM FEW120 01/M01 A3003 RMK AC2 SLP172=

TAF CYTR 250530Z 2506/2606 03005KT P6SM FEW120 FEW250
BECMG 2508/2510 BKN100 BKN200
FM251200 04005KT P6SM BKN080 OVC180
BECMG 2514/2516 08012G22KT
FM252200 07012G22KT P6SM FEW040 BKN060 TEMPO 2522/2601 5SM -SHRA
BR BKN040
FM260100 07012G22KT P6SM -SHRA SCT010 BKN040 TEMPO 2601/2606 4SM
-SHRA BR FEW005 BKN010
RMK NXT FCST BY 251200Z=
Your time UTC time
Weather data provided by Environment Canada and NAV CANADA